Terminal Aerodrome Forecast
Issued by NWS

Home | Current Version | Previous Version | Text Only | Print | Product List | Glossary On
Versions: 1 2 3 4 5 6 7 8 9 10 11 12 13 14 15 16 17 18 19 20 21 22 23
000
FTUS41 KPHI 261000 AAA
TAFMIV
TAF AMD
KMIV 261029Z 2610/2706 06010KT P6SM OVC050
     FM261200 06010KT 6SM -SN OVC035
      TEMPO 2612/2615 3SM -SN OVC020
     FM261500 05015G25KT 4SM -SNRA BR OVC010
     FM262200 04020G30KT 2SM -SN OVC008
     FM270200 02020G30KT 1SM -SN OVC003=

USA.gov is the U.S. government's official web portal to all federal, state and local government web resources and services.